createdAt,value
2023-03-12T00:00:08.895Z,2.77
2023-03-12T00:04:11.814Z,2.74
2023-03-12T00:08:16.385Z,2.71
2023-03-12T00:12:19.374Z,2.71
2023-03-12T00:16:23.474Z,2.70
2023-03-12T00:20:27.037Z,2.71
2023-03-12T00:24:31.577Z,2.72
2023-03-12T00:28:35.572Z,2.75
2023-03-12T00:32:39.563Z,2.77
2023-03-12T00:36:42.672Z,2.81
2023-03-12T00:40:47.365Z,2.82
2023-03-12T00:44:50.267Z,2.85
2023-03-12T00:48:53.470Z,2.85
2023-03-12T00:52:56.494Z,2.85
2023-03-12T00:57:01.269Z,2.84
2023-03-12T01:01:04.820Z,2.82
2023-03-12T01:05:10.093Z,2.80
2023-03-12T01:09:13.292Z,2.76
2023-03-12T01:13:18.109Z,2.74
2023-03-12T01:17:21.163Z,2.68
2023-03-12T01:21:24.827Z,2.62
2023-03-12T01:25:27.739Z,2.56
2023-03-12T01:29:32.895Z,2.51
2023-03-12T01:33:35.921Z,2.47
2023-03-12T01:37:39.146Z,2.47
2023-03-12T01:41:42.201Z,2.54
2023-03-12T01:46:23.062Z,2.67
2023-03-12T01:50:26.394Z,2.81
2023-03-12T01:55:12.883Z,2.93
2023-03-12T01:59:21.563Z,3.01
2023-03-12T02:03:26.251Z,3.01
2023-03-12T02:07:29.569Z,2.98
2023-03-12T02:11:32.896Z,2.95
2023-03-12T02:15:37.129Z,2.87
2023-03-12T02:19:50.531Z,2.80
2023-03-12T02:24:02.512Z,2.71
2023-03-12T02:28:10.879Z,2.64
2023-03-12T02:32:21.661Z,2.57
2023-03-12T02:36:25.069Z,2.49
2023-03-12T02:40:32.811Z,2.45
2023-03-12T02:44:38.274Z,2.43
2023-03-12T02:48:41.558Z,2.41
2023-03-12T02:52:44.806Z,2.39
2023-03-12T02:56:48.436Z,2.37
2023-03-12T03:00:53.295Z,2.37
2023-03-12T03:04:56.530Z,2.42
2023-03-12T03:09:00.200Z,2.50
2023-03-12T03:13:03.199Z,2.61
2023-03-12T03:17:07.946Z,2.72
2023-03-12T03:21:16.687Z,2.83
2023-03-12T03:25:22.452Z,2.92
2023-03-12T03:29:25.365Z,2.98
2023-03-12T03:33:30.977Z,3.02
2023-03-12T03:37:34.191Z,3.01
2023-03-12T03:41:37.693Z,3.00
2023-03-12T03:45:40.831Z,2.97
2023-03-12T03:49:45.420Z,2.92
2023-03-12T03:53:48.311Z,2.87
2023-03-12T03:57:51.656Z,2.81
2023-03-12T04:01:54.562Z,2.78
2023-03-12T04:06:02.291Z,2.80
2023-03-12T04:10:06.141Z,2.81
2023-03-12T04:14:09.096Z,2.88
2023-03-12T04:18:12.144Z,2.95
2023-03-12T04:22:16.772Z,3.03
2023-03-12T04:26:20.636Z,3.08
2023-03-12T04:30:24.062Z,3.13
2023-03-12T04:34:27.092Z,3.14
2023-03-12T04:38:32.501Z,3.14
2023-03-12T04:42:36.490Z,3.08
2023-03-12T04:46:39.884Z,3.00
2023-03-12T04:50:43.630Z,2.90
2023-03-12T04:54:48.234Z,2.82
2023-03-12T04:58:51.344Z,2.71
2023-03-12T05:02:55.411Z,2.61
2023-03-12T05:06:58.490Z,2.53
2023-03-12T05:11:03.292Z,2.45
2023-03-12T05:15:06.928Z,2.37
2023-03-12T05:19:10.102Z,2.30
2023-03-12T05:23:13.098Z,2.21
2023-03-12T05:27:19.996Z,2.14
2023-03-12T05:31:23.193Z,2.08
2023-03-12T05:35:26.623Z,2.03
2023-03-12T05:39:29.810Z,2.00
2023-03-12T05:43:35.356Z,1.96
2023-03-12T05:47:38.253Z,1.94
2023-03-12T05:51:42.187Z,2.01
2023-03-12T05:55:45.296Z,2.07
2023-03-12T05:59:50.327Z,2.18
2023-03-12T06:03:53.250Z,2.33
2023-03-12T06:07:56.470Z,2.53
2023-03-12T06:11:59.669Z,2.80
2023-03-12T06:16:10.011Z,3.06
2023-03-12T06:20:13.689Z,3.28
2023-03-12T06:24:16.929Z,3.45
2023-03-12T06:28:20.069Z,3.60
2023-03-12T06:32:25.062Z,3.75
2023-03-12T06:36:28.392Z,3.90
2023-03-12T06:40:31.578Z,4.08
2023-03-12T06:44:34.589Z,4.30
2023-03-12T06:48:41.772Z,4.56
2023-03-12T06:52:44.834Z,4.86
2023-03-12T06:56:48.142Z,5.15
2023-03-12T07:00:51.248Z,5.46
2023-03-12T07:04:56.484Z,5.80
2023-03-12T07:08:59.576Z,6.15
2023-03-12T07:13:02.969Z,6.54
2023-03-12T07:17:08.560Z,7.05
2023-03-12T07:21:13.214Z,7.50
2023-03-12T07:25:18.639Z,7.84
2023-03-12T07:29:22.350Z,8.15
2023-03-12T07:33:25.342Z,8.45
2023-03-12T07:37:30.126Z,8.78
2023-03-12T07:41:33.086Z,9.03
2023-03-12T07:45:36.379Z,9.36
2023-03-12T07:49:41.808Z,9.64
2023-03-12T07:53:46.527Z,9.97
2023-03-12T07:57:49.545Z,10.34
2023-03-12T08:01:53.076Z,10.74
2023-03-12T08:06:01.513Z,11.18
2023-03-12T08:10:09.791Z,11.62
2023-03-12T08:14:16.708Z,12.03
2023-03-12T08:18:21.043Z,12.40
2023-03-12T08:22:24.365Z,12.68
2023-03-12T08:26:29.022Z,12.82
2023-03-12T08:30:32.708Z,12.84
2023-03-12T08:34:37.027Z,12.87
2023-03-12T08:38:40.489Z,12.95
2023-03-12T08:42:46.617Z,13.07
2023-03-12T08:46:49.752Z,13.20
2023-03-12T08:50:53.522Z,13.26
2023-03-12T08:54:56.673Z,13.30
2023-03-12T08:59:01.491Z,13.30
2023-03-12T09:03:05.181Z,13.29
2023-03-12T09:07:09.917Z,13.30
2023-03-12T09:11:14.575Z,13.29
2023-03-12T09:15:19.612Z,13.35
2023-03-12T09:19:22.772Z,13.42
2023-03-12T09:23:26.943Z,13.39
2023-03-12T09:27:29.799Z,13.35
2023-03-12T09:31:34.976Z,13.42
2023-03-12T09:35:38.261Z,13.44
2023-03-12T09:39:41.444Z,13.49
2023-03-12T09:43:50.394Z,13.66
2023-03-12T09:47:57.481Z,13.86
2023-03-12T09:52:03.569Z,14.02
2023-03-12T09:56:10.631Z,14.12
2023-03-12T10:00:16.734Z,14.22
2023-03-12T10:04:56.393Z,14.27
2023-03-12T10:09:18.127Z,14.36
2023-03-12T10:13:48.991Z,14.41
2023-03-12T10:18:05.448Z,14.47
2023-03-12T10:22:26.729Z,14.53
2023-03-12T10:26:36.384Z,14.50
2023-03-12T10:30:42.948Z,14.50
2023-03-12T10:34:50.033Z,14.49
2023-03-12T10:38:54.572Z,14.29
2023-03-12T10:42:58.150Z,14.18
2023-03-12T10:47:08.475Z,14.09
2023-03-12T10:51:13.257Z,14.06
2023-03-12T10:55:26.702Z,14.02
2023-03-12T10:59:32.505Z,13.96
2023-03-12T11:03:35.978Z,13.68
2023-03-12T11:07:45.610Z,13.31
2023-03-12T11:11:51.675Z,12.91
2023-03-12T11:15:56.471Z,12.59
2023-03-12T11:19:59.688Z,12.31
2023-03-12T11:24:09.606Z,12.19
2023-03-12T11:28:24.945Z,12.18
2023-03-12T11:32:34.666Z,12.15
2023-03-12T11:36:49.182Z,12.09
2023-03-12T11:41:08.630Z,12.00
2023-03-12T11:45:24.283Z,11.81
2023-03-12T11:49:40.663Z,11.73
2023-03-12T11:54:03.808Z,11.69
2023-03-12T11:58:24.726Z,11.56
2023-03-12T12:02:53.295Z,11.42
2023-03-12T12:07:07.143Z,11.37
2023-03-12T12:11:16.442Z,11.29
2023-03-12T12:15:32.302Z,11.28
2023-03-12T12:19:51.064Z,11.31
2023-03-12T12:24:00.826Z,11.41
2023-03-12T12:28:25.490Z,11.59
2023-03-12T12:32:41.324Z,11.81
2023-03-12T12:36:50.934Z,12.05
2023-03-12T12:40:56.640Z,12.20
2023-03-12T12:45:04.115Z,12.31
2023-03-12T12:49:13.766Z,12.42
2023-03-12T12:53:24.775Z,12.44
2023-03-12T12:57:38.332Z,12.43
2023-03-12T13:01:42.711Z,12.38
2023-03-12T13:05:54.333Z,12.36
2023-03-12T13:09:59.987Z,12.28
2023-03-12T13:14:21.930Z,12.22
2023-03-12T13:18:27.270Z,12.10
2023-03-12T13:22:55.727Z,11.98
2023-03-12T13:27:06.346Z,11.88
2023-03-12T13:31:36.634Z,11.84
2023-03-12T13:35:41.265Z,11.89
2023-03-12T13:39:46.067Z,11.97
2023-03-12T13:43:54.892Z,12.11
2023-03-12T13:48:03.137Z,12.24
2023-03-12T13:52:21.113Z,12.24
2023-03-12T13:56:28.700Z,12.37
2023-03-12T14:00:39.462Z,12.41
2023-03-12T14:04:43.556Z,12.31
2023-03-12T14:08:58.872Z,12.34
2023-03-12T14:13:14.766Z,12.25
2023-03-12T14:17:21.866Z,12.09
2023-03-12T14:21:30.261Z,11.89
2023-03-12T14:25:37.719Z,11.79
2023-03-12T14:29:44.801Z,11.63
2023-03-12T14:34:06.753Z,11.56
2023-03-12T14:38:17.420Z,11.58
2023-03-12T14:42:26.618Z,11.54
2023-03-12T14:46:29.607Z,11.48
2023-03-12T14:50:41.922Z,11.43
2023-03-12T14:54:55.032Z,11.35
2023-03-12T14:58:59.617Z,11.27
2023-03-12T15:03:12.066Z,11.16
2023-03-12T15:07:22.484Z,11.05
2023-03-12T15:11:28.662Z,10.89
2023-03-12T15:15:38.264Z,10.71
2023-03-12T15:19:41.568Z,10.52
2023-03-12T15:23:49.388Z,10.43
2023-03-12T15:28:09.369Z,10.42
2023-03-12T15:32:16.120Z,10.33
2023-03-12T15:36:28.694Z,10.31
2023-03-12T15:40:33.778Z,10.26
2023-03-12T15:44:47.070Z,10.17
2023-03-12T15:48:53.224Z,10.02
2023-03-12T15:53:06.153Z,9.89
2023-03-12T15:57:24.501Z,9.85
2023-03-12T16:01:28.274Z,9.72
2023-03-12T16:05:34.493Z,9.67
2023-03-12T16:09:37.403Z,9.61
2023-03-12T16:13:42.392Z,9.57
2023-03-12T16:17:45.627Z,9.54
2023-03-12T16:21:49.564Z,9.49
2023-03-12T16:25:55.752Z,9.49
2023-03-12T16:30:03.311Z,9.46
2023-03-12T16:34:06.410Z,9.46
2023-03-12T16:38:10.065Z,9.42
2023-03-12T16:42:27.143Z,9.43
2023-03-12T16:46:33.487Z,9.41
2023-03-12T16:50:36.545Z,9.37
2023-03-12T16:54:40.021Z,9.37
2023-03-12T16:58:43.071Z,9.32
2023-03-12T17:02:48.352Z,9.30
2023-03-12T17:06:51.532Z,9.27
2023-03-12T17:10:56.440Z,9.25
2023-03-12T17:15:01.684Z,9.24
2023-03-12T17:19:06.749Z,9.25
2023-03-12T17:23:12.378Z,9.25
2023-03-12T17:27:15.716Z,9.22
2023-03-12T17:31:18.779Z,9.16
2023-03-12T17:35:24.033Z,9.09
2023-03-12T17:39:27.339Z,8.95
2023-03-12T17:43:30.691Z,8.90
2023-03-12T17:47:34.047Z,8.82
2023-03-12T17:51:38.994Z,8.77
2023-03-12T17:55:41.845Z,8.74
2023-03-12T17:59:45.180Z,8.75
2023-03-12T18:03:50.112Z,8.74
2023-03-12T18:07:55.558Z,8.77
2023-03-12T18:11:58.533Z,8.78
2023-03-12T18:16:05.961Z,8.83
2023-03-12T18:20:13.683Z,8.85
2023-03-12T18:24:18.261Z,8.88
2023-03-12T18:28:22.481Z,8.89
2023-03-12T18:32:25.796Z,8.92
2023-03-12T18:36:28.799Z,8.95
2023-03-12T18:40:34.258Z,8.97
2023-03-12T18:44:37.364Z,9.02
2023-03-12T18:48:43.636Z,9.03
2023-03-12T18:52:47.367Z,9.05
2023-03-12T18:56:52.516Z,9.06
2023-03-12T19:00:57.181Z,9.06
2023-03-12T19:05:00.390Z,9.05
2023-03-12T19:09:03.918Z,9.05
2023-03-12T19:13:08.528Z,9.03
2023-03-12T19:17:12.017Z,8.99
2023-03-12T19:21:15.558Z,8.97
2023-03-12T19:25:19.098Z,8.92
2023-03-12T19:29:23.726Z,8.84
2023-03-12T19:33:28.109Z,8.75
2023-03-12T19:37:31.532Z,8.65
2023-03-12T19:41:34.447Z,8.56
2023-03-12T19:45:39.504Z,8.46
2023-03-12T19:49:42.487Z,8.35
2023-03-12T19:53:47.004Z,8.24
2023-03-12T19:57:50.392Z,8.20
2023-03-12T20:01:55.829Z,8.17
2023-03-12T20:06:00.618Z,8.15
2023-03-12T20:10:04.820Z,8.14
2023-03-12T20:14:07.834Z,8.13
2023-03-12T20:18:13.263Z,8.11
2023-03-12T20:22:18.070Z,8.08
2023-03-12T20:26:21.910Z,8.03
2023-03-12T20:30:28.854Z,7.94
2023-03-12T20:34:33.927Z,7.85
2023-03-12T20:38:37.102Z,7.70
2023-03-12T20:42:43.761Z,7.57
2023-03-12T20:46:58.881Z,7.41
2023-03-12T20:51:03.982Z,7.26
2023-03-12T20:55:07.860Z,7.10
2023-03-12T20:59:13.033Z,6.95
2023-03-12T21:03:17.008Z,6.83
2023-03-12T21:07:22.072Z,6.71
2023-03-12T21:11:27.840Z,6.59
2023-03-12T21:15:31.810Z,6.50
2023-03-12T21:19:35.051Z,6.42
2023-03-12T21:23:40.264Z,6.38
2023-03-12T21:27:50.539Z,6.38
2023-03-12T21:31:54.750Z,6.47
2023-03-12T21:35:58.079Z,6.60
2023-03-12T21:40:02.946Z,6.72
2023-03-12T21:44:06.116Z,6.80
2023-03-12T21:48:09.721Z,6.84
2023-03-12T21:52:12.678Z,6.82
2023-03-12T21:56:17.283Z,6.91
2023-03-12T22:00:21.139Z,6.97
2023-03-12T22:04:25.342Z,7.01
2023-03-12T22:08:28.324Z,7.07
2023-03-12T22:12:32.971Z,7.16
2023-03-12T22:16:38.665Z,7.21
2023-03-12T22:20:41.851Z,7.29
2023-03-12T22:24:44.756Z,7.35
2023-03-12T22:28:52.342Z,7.38
2023-03-12T22:32:55.378Z,7.35
2023-03-12T22:36:58.877Z,7.26
2023-03-12T22:41:12.746Z,7.24
2023-03-12T22:45:17.458Z,7.21
2023-03-12T22:49:20.400Z,7.17
2023-03-12T22:53:23.813Z,7.12
2023-03-12T22:57:26.793Z,7.09
2023-03-12T23:01:31.566Z,7.04
2023-03-12T23:05:36.133Z,7.06
2023-03-12T23:09:39.561Z,7.06
2023-03-12T23:13:46.384Z,7.06
2023-03-12T23:17:51.087Z,7.06
2023-03-12T23:21:54.119Z,7.04
2023-03-12T23:25:59.000Z,6.98
2023-03-12T23:30:01.906Z,7.03
2023-03-12T23:34:06.900Z,6.94
2023-03-12T23:38:10.141Z,6.96
2023-03-12T23:42:13.440Z,6.94
2023-03-12T23:46:17.955Z,6.90
2023-03-12T23:50:22.803Z,6.84
2023-03-12T23:54:25.812Z,6.79
2023-03-12T23:58:29.972Z,6.73
